sensor_id;sensor_type;location;lat;lon;timestamp;P1;durP1;ratioP1;P2;durP2;ratioP2
56593;SDS011;42474;51.660;5.824;2023-09-18T00:02:09;25.74;;;22.41;;
56593;SDS011;42474;51.660;5.824;2023-09-18T00:06:09;25.47;;;22.77;;
56593;SDS011;42474;51.660;5.824;2023-09-18T00:10:10;25.74;;;22.86;;
56593;SDS011;42474;51.660;5.824;2023-09-18T00:14:09;24.94;;;22.36;;
56593;SDS011;42474;51.660;5.824;2023-09-18T00:18:09;24.73;;;21.56;;
56593;SDS011;42474;51.660;5.824;2023-09-18T00:22:09;24.39;;;21.98;;
56593;SDS011;42474;51.660;5.824;2023-09-18T00:26:09;25.75;;;22.27;;
56593;SDS011;42474;51.660;5.824;2023-09-18T00:30:10;24.28;;;21.58;;
56593;SDS011;42474;51.660;5.824;2023-09-18T00:34:09;21.83;;;19.34;;
56593;SDS011;42474;51.660;5.824;2023-09-18T00:38:09;23.55;;;20.44;;
56593;SDS011;42474;51.660;5.824;2023-09-18T00:42:09;23.11;;;20.54;;
56593;SDS011;42474;51.660;5.824;2023-09-18T00:46:09;25.28;;;21.46;;
56593;SDS011;42474;51.660;5.824;2023-09-18T00:50:11;22.92;;;20.06;;
56593;SDS011;42474;51.660;5.824;2023-09-18T00:54:10;24.78;;;21.3;;
56593;SDS011;42474;51.660;5.824;2023-09-18T00:58:10;25.74;;;21.84;;
56593;SDS011;42474;51.660;5.824;2023-09-18T01:02:09;23.7;;;20.23;;
56593;SDS011;42474;51.660;5.824;2023-09-18T01:06:09;22.76;;;20.14;;
56593;SDS011;42474;51.660;5.824;2023-09-18T01:10:09;22.37;;;19.37;;
56593;SDS011;42474;51.660;5.824;2023-09-18T01:14:16;22.12;;;19.54;;
56593;SDS011;42474;51.660;5.824;2023-09-18T01:18:09;23.05;;;19.15;;
56593;SDS011;42474;51.660;5.824;2023-09-18T01:22:11;24.35;;;19.25;;
56593;SDS011;42474;51.660;5.824;2023-09-18T01:26:09;24.01;;;19.23;;
56593;SDS011;42474;51.660;5.824;2023-09-18T01:30:10;21.42;;;18.24;;
56593;SDS011;42474;51.660;5.824;2023-09-18T01:34:10;20.91;;;17.85;;
56593;SDS011;42474;51.660;5.824;2023-09-18T01:38:09;18.13;;;15.71;;
56593;SDS011;42474;51.660;5.824;2023-09-18T01:42:09;17.78;;;15.88;;
56593;SDS011;42474;51.660;5.824;2023-09-18T01:46:10;15.69;;;13.58;;
56593;SDS011;42474;51.660;5.824;2023-09-18T01:50:10;15.91;;;14.43;;
56593;SDS011;42474;51.660;5.824;2023-09-18T01:54:09;17.23;;;14.65;;
56593;SDS011;42474;51.660;5.824;2023-09-18T01:58:09;17.34;;;15.29;;
56593;SDS011;42474;51.660;5.824;2023-09-18T02:02:09;16.58;;;14.94;;
56593;SDS011;42474;51.660;5.824;2023-09-18T02:06:09;19.14;;;14.72;;
56593;SDS011;42474;51.660;5.824;2023-09-18T02:10:09;15.46;;;12.66;;
56593;SDS011;42474;51.660;5.824;2023-09-18T02:14:10;15.14;;;13.01;;
56593;SDS011;42474;51.660;5.824;2023-09-18T02:18:09;15.91;;;12.55;;
56593;SDS011;42474;51.660;5.824;2023-09-18T02:22:09;15.28;;;11.87;;
56593;SDS011;42474;51.660;5.824;2023-09-18T02:26:09;15.84;;;12.01;;
56593;SDS011;42474;51.660;5.824;2023-09-18T02:30:10;13.7;;;10.81;;
56593;SDS011;42474;51.660;5.824;2023-09-18T02:34:09;15.95;;;12.14;;
56593;SDS011;42474;51.660;5.824;2023-09-18T02:38:09;14.54;;;11.47;;
56593;SDS011;42474;51.660;5.824;2023-09-18T02:42:09;13.92;;;11.99;;
56593;SDS011;42474;51.660;5.824;2023-09-18T02:46:09;14.66;;;12.23;;
56593;SDS011;42474;51.660;5.824;2023-09-18T02:50:09;15.34;;;12.46;;
56593;SDS011;42474;51.660;5.824;2023-09-18T02:54:09;14.08;;;11.45;;
56593;SDS011;42474;51.660;5.824;2023-09-18T02:58:09;16.96;;;11.98;;
56593;SDS011;42474;51.660;5.824;2023-09-18T03:02:09;13.66;;;11.37;;
56593;SDS011;42474;51.660;5.824;2023-09-18T03:06:09;15.97;;;11.76;;
56593;SDS011;42474;51.660;5.824;2023-09-18T03:10:10;12.26;;;10.79;;
56593;SDS011;42474;51.660;5.824;2023-09-18T03:14:09;13.69;;;11.47;;
56593;SDS011;42474;51.660;5.824;2023-09-18T03:18:09;12.3;;;10.33;;
56593;SDS011;42474;51.660;5.824;2023-09-18T03:22:09;12.12;;;10.64;;
56593;SDS011;42474;51.660;5.824;2023-09-18T03:26:10;12.08;;;10.46;;
56593;SDS011;42474;51.660;5.824;2023-09-18T03:30:10;16.45;;;10.3;;
56593;SDS011;42474;51.660;5.824;2023-09-18T03:34:09;14.06;;;9.8;;
56593;SDS011;42474;51.660;5.824;2023-09-18T03:38:09;12.79;;;9.8;;
56593;SDS011;42474;51.660;5.824;2023-09-18T03:42:09;14.35;;;9.65;;
56593;SDS011;42474;51.660;5.824;2023-09-18T03:46:09;13.75;;;9;;
56593;SDS011;42474;51.660;5.824;2023-09-18T03:50:10;11.16;;;9.33;;
56593;SDS011;42474;51.660;5.824;2023-09-18T03:54:10;14.18;;;8.79;;
56593;SDS011;42474;51.660;5.824;2023-09-18T03:58:09;10.73;;;8.55;;
56593;SDS011;42474;51.660;5.824;2023-09-18T04:02:09;11.8;;;8.2;;
56593;SDS011;42474;51.660;5.824;2023-09-18T04:06:09;11.7;;;8;;
56593;SDS011;42474;51.660;5.824;2023-09-18T04:10:09;16.37;;;7.64;;
56593;SDS011;42474;51.660;5.824;2023-09-18T04:14:09;11.35;;;6.93;;
56593;SDS011;42474;51.660;5.824;2023-09-18T04:18:09;11.98;;;7.86;;
56593;SDS011;42474;51.660;5.824;2023-09-18T04:22:09;13.57;;;7.82;;
56593;SDS011;42474;51.660;5.824;2023-09-18T04:26:09;14.32;;;6.98;;
56593;SDS011;42474;51.660;5.824;2023-09-18T04:30:10;9.98;;;7.06;;
56593;SDS011;42474;51.660;5.824;2023-09-18T04:34:09;14.03;;;7.44;;
56593;SDS011;42474;51.660;5.824;2023-09-18T04:38:09;11.53;;;7.15;;
56593;SDS011;42474;51.660;5.824;2023-09-18T04:42:09;10.81;;;6.83;;
56593;SDS011;42474;51.660;5.824;2023-09-18T04:46:09;11.68;;;7.35;;
56593;SDS011;42474;51.660;5.824;2023-09-18T04:50:09;14.83;;;7.15;;
56593;SDS011;42474;51.660;5.824;2023-09-18T04:54:09;12.8;;;7.6;;
56593;SDS011;42474;51.660;5.824;2023-09-18T04:58:09;13.1;;;8.08;;
56593;SDS011;42474;51.660;5.824;2023-09-18T05:02:10;10.67;;;7.76;;
56593;SDS011;42474;51.660;5.824;2023-09-18T05:06:10;10.03;;;8.08;;
56593;SDS011;42474;51.660;5.824;2023-09-18T05:10:10;13.99;;;8.64;;
56593;SDS011;42474;51.660;5.824;2023-09-18T05:14:09;11.49;;;8.04;;
56593;SDS011;42474;51.660;5.824;2023-09-18T05:18:09;10;;;7.85;;
56593;SDS011;42474;51.660;5.824;2023-09-18T05:22:10;11.52;;;8.52;;
56593;SDS011;42474;51.660;5.824;2023-09-18T05:26:09;15.12;;;9.54;;
56593;SDS011;42474;51.660;5.824;2023-09-18T05:30:11;12.35;;;8.76;;
56593;SDS011;42474;51.660;5.824;2023-09-18T05:34:09;11.16;;;8.86;;
56593;SDS011;42474;51.660;5.824;2023-09-18T05:38:10;9.53;;;7.38;;
56593;SDS011;42474;51.660;5.824;2023-09-18T05:42:09;11.79;;;6.82;;
56593;SDS011;42474;51.660;5.824;2023-09-18T05:46:09;7.63;;;5.64;;
56593;SDS011;42474;51.660;5.824;2023-09-18T05:50:11;7.47;;;5.37;;
56593;SDS011;42474;51.660;5.824;2023-09-18T05:54:09;6.97;;;4.73;;
56593;SDS011;42474;51.660;5.824;2023-09-18T05:58:09;7.42;;;4.34;;
56593;SDS011;42474;51.660;5.824;2023-09-18T06:02:09;6.37;;;4.01;;
56593;SDS011;42474;51.660;5.824;2023-09-18T06:06:09;4.73;;;3.64;;
56593;SDS011;42474;51.660;5.824;2023-09-18T06:10:10;4.74;;;3.09;;
56593;SDS011;42474;51.660;5.824;2023-09-18T06:14:10;6.28;;;2.81;;
56593;SDS011;42474;51.660;5.824;2023-09-18T06:18:09;4.52;;;2.61;;
56593;SDS011;42474;51.660;5.824;2023-09-18T06:22:10;5.45;;;3.17;;
56593;SDS011;42474;51.660;5.824;2023-09-18T06:26:09;5.3;;;2.66;;
56593;SDS011;42474;51.660;5.824;2023-09-18T06:30:10;4.51;;;2.7;;
56593;SDS011;42474;51.660;5.824;2023-09-18T06:34:10;3.4;;;2.2;;
56593;SDS011;42474;51.660;5.824;2023-09-18T06:38:09;3.85;;;2.46;;
56593;SDS011;42474;51.660;5.824;2023-09-18T06:42:09;5.88;;;2.59;;
56593;SDS011;42474;51.660;5.824;2023-09-18T06:46:09;5.08;;;2.63;;
56593;SDS011;42474;51.660;5.824;2023-09-18T06:50:10;3.1;;;2.04;;
56593;SDS011;42474;51.660;5.824;2023-09-18T06:54:10;3.66;;;2.3;;
56593;SDS011;42474;51.660;5.824;2023-09-18T06:58:10;3.98;;;2.06;;
56593;SDS011;42474;51.660;5.824;2023-09-18T07:02:09;3.75;;;2.11;;
56593;SDS011;42474;51.660;5.824;2023-09-18T07:06:10;3.1;;;1.88;;
56593;SDS011;42474;51.660;5.824;2023-09-18T07:10:09;3.53;;;1.9;;
56593;SDS011;42474;51.660;5.824;2023-09-18T07:14:10;2.73;;;1.85;;
56593;SDS011;42474;51.660;5.824;2023-09-18T07:18:10;5.08;;;2.26;;
56593;SDS011;42474;51.660;5.824;2023-09-18T07:22:09;3.79;;;2.22;;
56593;SDS011;42474;51.660;5.824;2023-09-18T07:26:09;4.97;;;1.81;;
56593;SDS011;42474;51.660;5.824;2023-09-18T07:30:10;3.3;;;1.89;;
56593;SDS011;42474;51.660;5.824;2023-09-18T07:34:09;4.93;;;2.11;;
56593;SDS011;42474;51.660;5.824;2023-09-18T07:38:09;5.59;;;2.74;;
56593;SDS011;42474;51.660;5.824;2023-09-18T07:42:09;3.44;;;2.09;;
56593;SDS011;42474;51.660;5.824;2023-09-18T07:46:09;3.8;;;1.84;;
56593;SDS011;42474;51.660;5.824;2023-09-18T07:50:10;3.4;;;2.24;;
56593;SDS011;42474;51.660;5.824;2023-09-18T07:54:13;2.36;;;1.78;;
56593;SDS011;42474;51.660;5.824;2023-09-18T07:58:10;4.49;;;1.85;;
56593;SDS011;42474;51.660;5.824;2023-09-18T08:02:09;2.39;;;1.75;;
56593;SDS011;42474;51.660;5.824;2023-09-18T08:06:09;7.93;;;1.68;;
56593;SDS011;42474;51.660;5.824;2023-09-18T08:10:10;4.5;;;1.88;;
56593;SDS011;42474;51.660;5.824;2023-09-18T08:14:09;4.95;;;2.22;;
56593;SDS011;42474;51.660;5.824;2023-09-18T08:18:10;3.88;;;2.32;;
56593;SDS011;42474;51.660;5.824;2023-09-18T08:22:10;4.09;;;2.2;;
56593;SDS011;42474;51.660;5.824;2023-09-18T08:26:09;3.38;;;1.87;;
56593;SDS011;42474;51.660;5.824;2023-09-18T08:30:11;3.59;;;1.88;;
56593;SDS011;42474;51.660;5.824;2023-09-18T08:34:10;4.33;;;2.22;;
56593;SDS011;42474;51.660;5.824;2023-09-18T08:38:09;3.06;;;2.05;;
56593;SDS011;42474;51.660;5.824;2023-09-18T08:42:10;3.84;;;2;;
56593;SDS011;42474;51.660;5.824;2023-09-18T08:46:10;2.86;;;1.92;;
56593;SDS011;42474;51.660;5.824;2023-09-18T08:50:10;4.97;;;2.29;;
56593;SDS011;42474;51.660;5.824;2023-09-18T08:54:10;4.84;;;2.15;;
56593;SDS011;42474;51.660;5.824;2023-09-18T08:58:10;2.93;;;1.82;;
56593;SDS011;42474;51.660;5.824;2023-09-18T09:02:10;3.85;;;2.28;;
56593;SDS011;42474;51.660;5.824;2023-09-18T09:06:10;4.46;;;2;;
56593;SDS011;42474;51.660;5.824;2023-09-18T09:10:10;4.93;;;2.3;;
56593;SDS011;42474;51.660;5.824;2023-09-18T09:14:11;4.02;;;2.42;;
56593;SDS011;42474;51.660;5.824;2023-09-18T09:18:10;3.19;;;1.76;;
56593;SDS011;42474;51.660;5.824;2023-09-18T09:22:19;4.52;;;2.37;;
56593;SDS011;42474;51.660;5.824;2023-09-18T09:26:14;5.78;;;2.18;;
56593;SDS011;42474;51.660;5.824;2023-09-18T09:30:10;5.41;;;2.07;;
56593;SDS011;42474;51.660;5.824;2023-09-18T09:34:10;3.39;;;1.95;;
56593;SDS011;42474;51.660;5.824;2023-09-18T09:38:11;2.93;;;1.88;;
56593;SDS011;42474;51.660;5.824;2023-09-18T09:42:10;4.71;;;1.68;;
56593;SDS011;42474;51.660;5.824;2023-09-18T09:46:15;4.88;;;2.63;;
56593;SDS011;42474;51.660;5.824;2023-09-18T09:50:13;4.22;;;2.72;;
56593;SDS011;42474;51.660;5.824;2023-09-18T09:54:10;6.34;;;2.67;;
56593;SDS011;42474;51.660;5.824;2023-09-18T09:58:11;4.48;;;2.34;;
56593;SDS011;42474;51.660;5.824;2023-09-18T10:02:10;5;;;2.45;;
56593;SDS011;42474;51.660;5.824;2023-09-18T10:06:11;17.55;;;8.3;;
56593;SDS011;42474;51.660;5.824;2023-09-18T10:10:10;7.95;;;3.29;;
56593;SDS011;42474;51.660;5.824;2023-09-18T10:14:12;7.19;;;3.53;;
56593;SDS011;42474;51.660;5.824;2023-09-18T10:18:22;6.15;;;3.25;;
56593;SDS011;42474;51.660;5.824;2023-09-18T10:22:21;9.41;;;2.62;;
56593;SDS011;42474;51.660;5.824;2023-09-18T10:26:14;4.25;;;2.4;;
56593;SDS011;42474;51.660;5.824;2023-09-18T10:30:12;4.5;;;2.58;;
56593;SDS011;42474;51.660;5.824;2023-09-18T10:34:12;5.14;;;2.31;;
56593;SDS011;42474;51.660;5.824;2023-09-18T10:38:10;4.54;;;2.38;;
56593;SDS011;42474;51.660;5.824;2023-09-18T10:42:10;5.38;;;2.25;;
56593;SDS011;42474;51.660;5.824;2023-09-18T10:46:10;4.62;;;2.58;;
56593;SDS011;42474;51.660;5.824;2023-09-18T10:50:10;4.74;;;2.62;;
56593;SDS011;42474;51.660;5.824;2023-09-18T10:54:10;4.72;;;2.52;;
56593;SDS011;42474;51.660;5.824;2023-09-18T10:58:10;2.74;;;2.1;;
56593;SDS011;42474;51.660;5.824;2023-09-18T11:02:10;3.82;;;2.21;;
56593;SDS011;42474;51.660;5.824;2023-09-18T11:06:11;3.41;;;2.23;;
56593;SDS011;42474;51.660;5.824;2023-09-18T11:10:26;3.49;;;2.3;;
56593;SDS011;42474;51.660;5.824;2023-09-18T11:14:11;5.12;;;2.25;;
56593;SDS011;42474;51.660;5.824;2023-09-18T11:18:10;4.13;;;2.36;;
56593;SDS011;42474;51.660;5.824;2023-09-18T11:22:10;3.83;;;2.29;;
56593;SDS011;42474;51.660;5.824;2023-09-18T11:26:11;4.56;;;2.35;;
56593;SDS011;42474;51.660;5.824;2023-09-18T11:30:11;4.66;;;2.66;;
56593;SDS011;42474;51.660;5.824;2023-09-18T11:34:12;4.35;;;2.47;;
56593;SDS011;42474;51.660;5.824;2023-09-18T11:38:11;6.6;;;2.66;;
56593;SDS011;42474;51.660;5.824;2023-09-18T11:42:12;3.61;;;2.48;;
56593;SDS011;42474;51.660;5.824;2023-09-18T11:46:11;4.21;;;3.22;;
56593;SDS011;42474;51.660;5.824;2023-09-18T11:50:11;5.86;;;2.9;;
56593;SDS011;42474;51.660;5.824;2023-09-18T11:54:10;5.69;;;2.88;;
56593;SDS011;42474;51.660;5.824;2023-09-18T11:58:10;8.14;;;3.35;;
56593;SDS011;42474;51.660;5.824;2023-09-18T12:02:10;5.76;;;2.91;;
56593;SDS011;42474;51.660;5.824;2023-09-18T12:06:11;5.39;;;2.79;;
56593;SDS011;42474;51.660;5.824;2023-09-18T12:10:11;5.61;;;2.87;;
56593;SDS011;42474;51.660;5.824;2023-09-18T12:14:10;5.12;;;2.94;;
56593;SDS011;42474;51.660;5.824;2023-09-18T12:18:11;3.28;;;2.57;;
56593;SDS011;42474;51.660;5.824;2023-09-18T12:22:10;3.87;;;2.94;;
56593;SDS011;42474;51.660;5.824;2023-09-18T12:26:12;4.64;;;2.77;;
56593;SDS011;42474;51.660;5.824;2023-09-18T12:30:12;3.96;;;2.48;;
56593;SDS011;42474;51.660;5.824;2023-09-18T12:34:14;3.88;;;2.16;;
56593;SDS011;42474;51.660;5.824;2023-09-18T12:38:19;4.21;;;2.33;;
56593;SDS011;42474;51.660;5.824;2023-09-18T12:42:10;3.3;;;2.61;;
56593;SDS011;42474;51.660;5.824;2023-09-18T12:46:10;7.94;;;2.67;;
56593;SDS011;42474;51.660;5.824;2023-09-18T12:50:13;4.28;;;2.37;;
56593;SDS011;42474;51.660;5.824;2023-09-18T12:54:10;4.87;;;2.6;;
56593;SDS011;42474;51.660;5.824;2023-09-18T12:58:11;4.66;;;2.45;;
56593;SDS011;42474;51.660;5.824;2023-09-18T13:02:13;2.77;;;1.99;;
56593;SDS011;42474;51.660;5.824;2023-09-18T13:06:12;4.76;;;2.44;;
56593;SDS011;42474;51.660;5.824;2023-09-18T13:10:10;5.37;;;2.48;;
56593;SDS011;42474;51.660;5.824;2023-09-18T13:14:10;3.48;;;2.03;;
56593;SDS011;42474;51.660;5.824;2023-09-18T13:18:11;4.53;;;2.46;;
56593;SDS011;42474;51.660;5.824;2023-09-18T13:22:21;3.19;;;2.04;;
56593;SDS011;42474;51.660;5.824;2023-09-18T13:26:10;3.67;;;2.45;;
56593;SDS011;42474;51.660;5.824;2023-09-18T13:30:10;4.85;;;2.45;;
56593;SDS011;42474;51.660;5.824;2023-09-18T13:34:10;4.68;;;2.58;;
56593;SDS011;42474;51.660;5.824;2023-09-18T13:38:11;3.8;;;2.51;;
56593;SDS011;42474;51.660;5.824;2023-09-18T13:42:10;4.69;;;2.53;;
56593;SDS011;42474;51.660;5.824;2023-09-18T13:46:10;4.44;;;2.41;;
56593;SDS011;42474;51.660;5.824;2023-09-18T13:50:10;5.47;;;2.53;;
56593;SDS011;42474;51.660;5.824;2023-09-18T13:54:10;2.9;;;2.02;;
56593;SDS011;42474;51.660;5.824;2023-09-18T14:02:10;3.86;;;2.11;;
56593;SDS011;42474;51.660;5.824;2023-09-18T14:06:10;3.86;;;2.03;;
56593;SDS011;42474;51.660;5.824;2023-09-18T14:10:10;2.22;;;1.77;;
56593;SDS011;42474;51.660;5.824;2023-09-18T14:14:10;5;;;2.14;;
56593;SDS011;42474;51.660;5.824;2023-09-18T14:18:10;4.26;;;2.11;;
56593;SDS011;42474;51.660;5.824;2023-09-18T14:22:10;3.08;;;2;;
56593;SDS011;42474;51.660;5.824;2023-09-18T14:26:10;4.1;;;1.81;;
56593;SDS011;42474;51.660;5.824;2023-09-18T14:30:11;2.96;;;1.78;;
56593;SDS011;42474;51.660;5.824;2023-09-18T14:34:10;3.9;;;2.03;;
56593;SDS011;42474;51.660;5.824;2023-09-18T14:38:10;4.79;;;1.86;;
56593;SDS011;42474;51.660;5.824;2023-09-18T14:42:10;2.56;;;1.64;;
56593;SDS011;42474;51.660;5.824;2023-09-18T14:46:10;4.01;;;1.88;;
56593;SDS011;42474;51.660;5.824;2023-09-18T14:50:10;6.95;;;2.17;;
56593;SDS011;42474;51.660;5.824;2023-09-18T14:54:10;4.1;;;1.76;;
56593;SDS011;42474;51.660;5.824;2023-09-18T14:58:10;3.69;;;1.88;;
56593;SDS011;42474;51.660;5.824;2023-09-18T15:02:10;3.49;;;1.56;;
56593;SDS011;42474;51.660;5.824;2023-09-18T15:06:10;2.39;;;1.66;;
56593;SDS011;42474;51.660;5.824;2023-09-18T15:10:10;5.25;;;2.19;;
56593;SDS011;42474;51.660;5.824;2023-09-18T15:14:10;5.64;;;1.77;;
56593;SDS011;42474;51.660;5.824;2023-09-18T15:18:10;3.01;;;1.86;;
56593;SDS011;42474;51.660;5.824;2023-09-18T15:22:10;3.69;;;1.75;;
56593;SDS011;42474;51.660;5.824;2023-09-18T15:26:10;2.72;;;1.63;;
56593;SDS011;42474;51.660;5.824;2023-09-18T15:30:10;2.91;;;1.92;;
56593;SDS011;42474;51.660;5.824;2023-09-18T15:34:10;2.44;;;1.89;;
56593;SDS011;42474;51.660;5.824;2023-09-18T15:38:10;2.63;;;1.88;;
56593;SDS011;42474;51.660;5.824;2023-09-18T15:42:10;4.34;;;1.88;;
56593;SDS011;42474;51.660;5.824;2023-09-18T15:46:10;2.41;;;0.9;;
56593;SDS011;42474;51.660;5.824;2023-09-18T15:50:11;1.62;;;0.72;;
56593;SDS011;42474;51.660;5.824;2023-09-18T15:54:10;4.64;;;1.06;;
56593;SDS011;42474;51.660;5.824;2023-09-18T15:58:10;3.24;;;1.1;;
56593;SDS011;42474;51.660;5.824;2023-09-18T16:02:10;3.21;;;0.83;;
56593;SDS011;42474;51.660;5.824;2023-09-18T16:06:10;2.61;;;0.87;;
56593;SDS011;42474;51.660;5.824;2023-09-18T16:10:10;4.2;;;1.48;;
56593;SDS011;42474;51.660;5.824;2023-09-18T16:14:10;3.69;;;1.93;;
56593;SDS011;42474;51.660;5.824;2023-09-18T16:18:10;4.42;;;1.92;;
56593;SDS011;42474;51.660;5.824;2023-09-18T16:22:10;5.54;;;1.69;;
56593;SDS011;42474;51.660;5.824;2023-09-18T16:26:10;3.19;;;1.5;;
56593;SDS011;42474;51.660;5.824;2023-09-18T16:30:11;2.64;;;1.17;;
56593;SDS011;42474;51.660;5.824;2023-09-18T16:34:10;2.46;;;1.28;;
56593;SDS011;42474;51.660;5.824;2023-09-18T16:38:10;3.51;;;1.25;;
56593;SDS011;42474;51.660;5.824;2023-09-18T16:42:10;1.75;;;0.98;;
56593;SDS011;42474;51.660;5.824;2023-09-18T16:46:10;1.87;;;1.31;;
56593;SDS011;42474;51.660;5.824;2023-09-18T16:50:10;2.21;;;1.29;;
56593;SDS011;42474;51.660;5.824;2023-09-18T16:54:12;2.21;;;1.56;;
56593;SDS011;42474;51.660;5.824;2023-09-18T16:58:10;2.79;;;1.69;;
56593;SDS011;42474;51.660;5.824;2023-09-18T17:02:10;3.06;;;1.84;;
56593;SDS011;42474;51.660;5.824;2023-09-18T17:06:10;2.83;;;2.01;;
56593;SDS011;42474;51.660;5.824;2023-09-18T17:10:10;3.16;;;2.3;;
56593;SDS011;42474;51.660;5.824;2023-09-18T17:14:10;3.29;;;2;;
56593;SDS011;42474;51.660;5.824;2023-09-18T17:18:10;4.63;;;1.84;;
56593;SDS011;42474;51.660;5.824;2023-09-18T17:22:10;3.31;;;2.11;;
56593;SDS011;42474;51.660;5.824;2023-09-18T17:26:10;3.49;;;2.26;;
56593;SDS011;42474;51.660;5.824;2023-09-18T17:30:11;3.64;;;2.35;;
56593;SDS011;42474;51.660;5.824;2023-09-18T17:34:10;5.47;;;2.16;;
56593;SDS011;42474;51.660;5.824;2023-09-18T17:38:10;4.92;;;2.7;;
56593;SDS011;42474;51.660;5.824;2023-09-18T17:42:10;3.25;;;2.43;;
56593;SDS011;42474;51.660;5.824;2023-09-18T17:46:10;4.57;;;2.83;;
56593;SDS011;42474;51.660;5.824;2023-09-18T17:50:10;4.94;;;2.67;;
56593;SDS011;42474;51.660;5.824;2023-09-18T17:54:10;4.39;;;2.52;;
56593;SDS011;42474;51.660;5.824;2023-09-18T17:58:10;4.14;;;3.01;;
56593;SDS011;42474;51.660;5.824;2023-09-18T18:02:10;4.67;;;2.79;;
56593;SDS011;42474;51.660;5.824;2023-09-18T18:06:10;4.67;;;3.13;;
56593;SDS011;42474;51.660;5.824;2023-09-18T18:10:10;4.26;;;2.76;;
56593;SDS011;42474;51.660;5.824;2023-09-18T18:14:10;4.88;;;2.82;;
56593;SDS011;42474;51.660;5.824;2023-09-18T18:18:10;4.9;;;3.19;;
56593;SDS011;42474;51.660;5.824;2023-09-18T18:22:10;7.1;;;3.46;;
56593;SDS011;42474;51.660;5.824;2023-09-18T18:26:10;3.94;;;3.18;;
56593;SDS011;42474;51.660;5.824;2023-09-18T18:30:11;4.71;;;3.02;;
56593;SDS011;42474;51.660;5.824;2023-09-18T18:34:10;4.84;;;3.03;;
56593;SDS011;42474;51.660;5.824;2023-09-18T18:38:10;8.81;;;3.51;;
56593;SDS011;42474;51.660;5.824;2023-09-18T18:42:10;5.5;;;3.25;;
56593;SDS011;42474;51.660;5.824;2023-09-18T18:46:10;4.26;;;3.24;;
56593;SDS011;42474;51.660;5.824;2023-09-18T18:50:10;6.23;;;3.28;;
56593;SDS011;42474;51.660;5.824;2023-09-18T18:54:10;6.17;;;3.66;;
56593;SDS011;42474;51.660;5.824;2023-09-18T18:58:10;6.8;;;3.58;;
56593;SDS011;42474;51.660;5.824;2023-09-18T19:02:10;4.51;;;3.68;;
56593;SDS011;42474;51.660;5.824;2023-09-18T19:06:10;9.04;;;3.42;;
56593;SDS011;42474;51.660;5.824;2023-09-18T19:10:10;5.27;;;3.27;;
56593;SDS011;42474;51.660;5.824;2023-09-18T19:14:10;8.14;;;3.65;;
56593;SDS011;42474;51.660;5.824;2023-09-18T19:18:10;4.17;;;3.43;;
56593;SDS011;42474;51.660;5.824;2023-09-18T19:22:10;5.77;;;3.25;;
56593;SDS011;42474;51.660;5.824;2023-09-18T19:26:10;4.63;;;3.2;;
56593;SDS011;42474;51.660;5.824;2023-09-18T19:30:11;4.69;;;3.23;;
56593;SDS011;42474;51.660;5.824;2023-09-18T19:34:10;4.46;;;2.75;;
56593;SDS011;42474;51.660;5.824;2023-09-18T19:38:10;5.5;;;2.69;;
56593;SDS011;42474;51.660;5.824;2023-09-18T19:42:10;5.78;;;2.72;;
56593;SDS011;42474;51.660;5.824;2023-09-18T19:46:10;5.73;;;3.06;;
56593;SDS011;42474;51.660;5.824;2023-09-18T19:50:10;4.04;;;2.86;;
56593;SDS011;42474;51.660;5.824;2023-09-18T19:54:10;3.01;;;2.52;;
56593;SDS011;42474;51.660;5.824;2023-09-18T19:58:10;4.74;;;3.24;;
56593;SDS011;42474;51.660;5.824;2023-09-18T20:02:16;3.47;;;2.77;;
56593;SDS011;42474;51.660;5.824;2023-09-18T20:06:10;5.76;;;2.73;;
56593;SDS011;42474;51.660;5.824;2023-09-18T20:10:10;4.68;;;2.8;;
56593;SDS011;42474;51.660;5.824;2023-09-18T20:14:10;4.83;;;2.93;;
56593;SDS011;42474;51.660;5.824;2023-09-18T20:18:10;6.82;;;2.95;;
56593;SDS011;42474;51.660;5.824;2023-09-18T20:22:10;4.61;;;2.81;;
56593;SDS011;42474;51.660;5.824;2023-09-18T20:26:10;6.14;;;2.84;;
56593;SDS011;42474;51.660;5.824;2023-09-18T20:30:12;5.45;;;2.42;;
56593;SDS011;42474;51.660;5.824;2023-09-18T20:34:10;8.76;;;3.14;;
56593;SDS011;42474;51.660;5.824;2023-09-18T20:38:10;9.07;;;2.53;;
56593;SDS011;42474;51.660;5.824;2023-09-18T20:42:10;7.06;;;2.6;;
56593;SDS011;42474;51.660;5.824;2023-09-18T20:46:10;5.28;;;2.39;;
56593;SDS011;42474;51.660;5.824;2023-09-18T20:50:10;4.51;;;2.41;;
56593;SDS011;42474;51.660;5.824;2023-09-18T20:54:10;4.41;;;2.43;;
56593;SDS011;42474;51.660;5.824;2023-09-18T20:58:10;6.62;;;2.62;;
56593;SDS011;42474;51.660;5.824;2023-09-18T21:02:10;7.67;;;2.46;;
56593;SDS011;42474;51.660;5.824;2023-09-18T21:06:10;9.06;;;2.45;;
56593;SDS011;42474;51.660;5.824;2023-09-18T21:10:10;10.89;;;3.2;;
56593;SDS011;42474;51.660;5.824;2023-09-18T21:18:10;9.11;;;2.69;;
56593;SDS011;42474;51.660;5.824;2023-09-18T21:22:10;11.35;;;2.95;;
56593;SDS011;42474;51.660;5.824;2023-09-18T21:26:10;9.06;;;2.56;;
56593;SDS011;42474;51.660;5.824;2023-09-18T21:30:12;8.42;;;2.85;;
56593;SDS011;42474;51.660;5.824;2023-09-18T21:34:10;10.45;;;3.06;;
56593;SDS011;42474;51.660;5.824;2023-09-18T21:38:10;11.33;;;2.83;;
56593;SDS011;42474;51.660;5.824;2023-09-18T21:42:10;11.5;;;2.94;;
56593;SDS011;42474;51.660;5.824;2023-09-18T21:46:11;14.17;;;3.47;;
56593;SDS011;42474;51.660;5.824;2023-09-18T21:50:10;10.87;;;3.32;;
56593;SDS011;42474;51.660;5.824;2023-09-18T21:54:11;10.12;;;3.13;;
56593;SDS011;42474;51.660;5.824;2023-09-18T21:58:10;8.9;;;3.06;;
56593;SDS011;42474;51.660;5.824;2023-09-18T22:02:10;9.88;;;2.69;;
56593;SDS011;42474;51.660;5.824;2023-09-18T22:06:10;7.61;;;2.94;;
56593;SDS011;42474;51.660;5.824;2023-09-18T22:10:10;8.54;;;2.61;;
56593;SDS011;42474;51.660;5.824;2023-09-18T22:14:10;10.58;;;2.8;;
56593;SDS011;42474;51.660;5.824;2023-09-18T22:18:10;11.24;;;2.78;;
56593;SDS011;42474;51.660;5.824;2023-09-18T22:22:10;12.33;;;2.95;;
56593;SDS011;42474;51.660;5.824;2023-09-18T22:26:10;11.49;;;3.38;;
56593;SDS011;42474;51.660;5.824;2023-09-18T22:30:11;11.19;;;3.38;;
56593;SDS011;42474;51.660;5.824;2023-09-18T22:34:10;9.99;;;2.97;;
56593;SDS011;42474;51.660;5.824;2023-09-18T22:38:17;11.14;;;3;;
56593;SDS011;42474;51.660;5.824;2023-09-18T22:58:11;10.94;;;3.16;;
56593;SDS011;42474;51.660;5.824;2023-09-18T23:02:10;13.03;;;3.35;;
56593;SDS011;42474;51.660;5.824;2023-09-18T23:06:10;17.52;;;3.49;;
56593;SDS011;42474;51.660;5.824;2023-09-18T23:14:10;13.41;;;3.44;;
56593;SDS011;42474;51.660;5.824;2023-09-18T23:18:10;11.94;;;3.36;;
56593;SDS011;42474;51.660;5.824;2023-09-18T23:22:10;14.14;;;3.54;;
56593;SDS011;42474;51.660;5.824;2023-09-18T23:26:10;14.46;;;3.3;;
56593;SDS011;42474;51.660;5.824;2023-09-18T23:30:11;15.97;;;3.33;;
56593;SDS011;42474;51.660;5.824;2023-09-18T23:34:10;15.94;;;3.35;;
56593;SDS011;42474;51.660;5.824;2023-09-18T23:38:10;15.18;;;3.61;;
56593;SDS011;42474;51.660;5.824;2023-09-18T23:42:10;15.38;;;3.31;;
56593;SDS011;42474;51.660;5.824;2023-09-18T23:46:10;14.78;;;3.06;;
56593;SDS011;42474;51.660;5.824;2023-09-18T23:50:10;8.83;;;2.82;;
56593;SDS011;42474;51.660;5.824;2023-09-18T23:54:10;15.25;;;3.7;;
56593;SDS011;42474;51.660;5.824;2023-09-18T23:58:10;16.18;;;3.36;;
